Time;durP1;ratioP1;P1;durP2;ratioP2;P2;SDS_P1;SDS_P2;PMS_P1;PMS_P2;Temp;Humidity;BMP_temperature;BMP_pressure;BME280_temperature;BME280_humidity;BME280_pressure;Samples;Min_cycle;Max_cycle;Signal;HPM_P1;HPM_P2
2023/12/16 00:00:15;;;;;;;;;;;;;;;4.07;54.05;97603.59;4956947;28;19937;-64
2023/12/16 00:02:41;;;;;;;;;;;;;;;3.97;53.26;97605.91;4955657;28;19930;-64
2023/12/16 00:05:06;;;;;;;;;;;;;;;3.96;52.45;97598.94;4955558;28;19941;-64
2023/12/16 00:07:32;;;;;;;;;;;;;;;4.27;53.75;97602.47;4957705;28;20584;-64
2023/12/16 00:09:57;;;;;;;;;;;;;;;3.90;53.37;97600.13;4957537;28;20299;-64
2023/12/16 00:12:22;;;;;;;;;;;;;;;4.08;52.42;97602.66;4956192;28;19976;-64
2023/12/16 00:14:47;;;;;;;;;;;;;;;4.06;51.96;97601.91;4956364;28;20396;-64
2023/12/16 00:17:13;;;;;;;;;;;;;;;4.00;51.92;97602.25;4957500;28;20037;-63
2023/12/16 00:19:38;;;;;;;;;;;;;;;4.00;52.55;97594.34;4956710;28;19934;-64
2023/12/16 00:22:03;;;;;;;;;;;;;;;3.77;53.14;97604.38;4954917;28;20048;-64
2023/12/16 00:24:28;;;;;;;;;;;;;;;3.70;53.29;97603.06;4957916;28;20009;-64
2023/12/16 00:26:54;;;;;;;;;;;;;;;3.96;51.94;97598.94;4956397;28;20601;-64
2023/12/16 00:29:19;;;;;;;;;;;;;;;4.02;51.51;97595.09;4957025;28;19976;-64
2023/12/16 00:31:44;;;;;;;;;;;;;;;4.08;52.41;97597.38;4956363;28;20013;-64
2023/12/16 00:34:10;;;;;;;;;;;;;;;4.09;53.11;97600.88;4956849;28;19922;-64
2023/12/16 00:36:35;;;;;;;;;;;;;;;4.15;54.82;97595.25;4957124;28;20361;-64
2023/12/16 00:39:00;;;;;;;;;;;;;;;4.08;54.63;97602.66;4957248;28;19926;-64
2023/12/16 00:41:26;;;;;;;;;;;;;;;4.17;54.55;97602.13;4960508;28;19926;-64
2023/12/16 00:43:51;;;;;;;;;;;;;;;3.92;53.03;97597.44;4960425;28;19930;-64
2023/12/16 00:46:17;;;;;;;;;;;;;;;3.75;53.04;97604.50;4959869;28;19932;-64
2023/12/16 00:48:43;;;;;;;;;;;;;;;3.64;52.76;97604.25;4960864;28;20031;-64
2023/12/16 00:51:08;;;;;;;;;;;;;;;3.66;52.81;97597.94;4960758;28;19924;-64
2023/12/16 00:53:33;;;;;;;;;;;;;;;3.67;52.50;97597.00;4960019;28;19922;-64
2023/12/16 00:55:58;;;;;;;;;;;;;;;3.80;52.96;97598.94;4960664;28;19958;-64
2023/12/16 00:58:24;;;;;;;;;;;;;;;4.01;52.44;97599.53;4959731;28;20412;-64
2023/12/16 01:00:49;;;;;;;;;;;;;;;4.07;54.06;97601.81;4962642;28;20032;-64
2023/12/16 01:03:14;;;;;;;;;;;;;;;4.16;52.14;97596.94;4960934;28;19965;-64
2023/12/16 01:05:39;;;;;;;;;;;;;;;4.09;51.27;97601.72;4960647;28;19925;-64
2023/12/16 01:08:05;;;;;;;;;;;;;;;4.10;54.37;97608.69;4962598;28;19926;-64
2023/12/16 01:10:30;;;;;;;;;;;;;;;4.23;55.34;97608.00;4959947;28;19929;-64
2023/12/16 01:12:55;;;;;;;;;;;;;;;4.32;54.97;97607.47;4960071;28;20427;-64
2023/12/16 01:15:20;;;;;;;;;;;;;;;4.43;55.93;97598.91;4959751;28;19926;-64
2023/12/16 01:17:46;;;;;;;;;;;;;;;4.53;54.09;97609.78;4960003;28;20053;-64
2023/12/16 01:20:11;;;;;;;;;;;;;;;4.52;53.01;97610.72;4958358;28;20669;-64
2023/12/16 01:22:36;;;;;;;;;;;;;;;4.56;53.52;97613.06;4959214;28;19976;-64
2023/12/16 01:25:02;;;;;;;;;;;;;;;4.61;53.83;97606.66;4960440;28;20005;-64
2023/12/16 01:27:27;;;;;;;;;;;;;;;4.67;54.20;97607.19;4959714;28;19941;-64
2023/12/16 01:29:52;;;;;;;;;;;;;;;4.74;54.50;97606.78;4958077;28;20052;-64
2023/12/16 01:32:17;;;;;;;;;;;;;;;4.75;54.29;97609.34;4959531;28;20351;-64
2023/12/16 01:34:43;;;;;;;;;;;;;;;4.78;53.71;97603.03;4960947;28;19968;-64
2023/12/16 01:37:08;;;;;;;;;;;;;;;4.81;53.86;97602.84;4960103;28;19929;-64
2023/12/16 01:39:33;;;;;;;;;;;;;;;4.87;54.20;97607.78;4960052;28;20445;-64
2023/12/16 01:41:58;;;;;;;;;;;;;;;4.93;52.98;97610.03;4960359;28;19929;-62
2023/12/16 01:44:24;;;;;;;;;;;;;;;4.84;50.40;97605.31;4960225;28;19925;-63
2023/12/16 01:46:49;;;;;;;;;;;;;;;4.79;53.95;97615.28;4959114;28;19922;-62
2023/12/16 01:49:14;;;;;;;;;;;;;;;4.88;53.93;97616.53;4960908;28;19980;-63
2023/12/16 01:51:39;;;;;;;;;;;;;;;4.56;51.86;97625.44;4959340;28;19925;-62
2023/12/16 01:54:06;;;;;;;;;;;;;;;4.62;53.15;97622.41;4958489;28;19922;-62
2023/12/16 01:56:31;;;;;;;;;;;;;;;4.80;53.57;97627.56;4959484;28;19922;-62
2023/12/16 01:58:56;;;;;;;;;;;;;;;4.85;53.45;97630.75;4970047;28;19930;-63
2023/12/16 02:01:21;;;;;;;;;;;;;;;4.89;53.08;97629.63;4959582;28;20008;-62
2023/12/16 02:03:47;;;;;;;;;;;;;;;4.90;53.33;97627.84;4958748;28;19969;-63
2023/12/16 02:06:13;;;;;;;;;;;;;;;4.87;53.01;97618.31;4959109;28;19985;-63
2023/12/16 02:08:38;;;;;;;;;;;;;;;4.75;53.33;97614.63;4963285;28;19926;-63
2023/12/16 02:11:03;;;;;;;;;;;;;;;4.69;52.12;97618.47;4959115;28;19929;-63
2023/12/16 02:13:28;;;;;;;;;;;;;;;4.85;53.44;97614.91;4959988;28;20327;-63
2023/12/16 02:15:54;;;;;;;;;;;;;;;4.61;51.89;97619.88;4959302;28;19918;-63
2023/12/16 02:18:19;;;;;;;;;;;;;;;4.80;53.22;97615.19;4958969;28;19970;-62
2023/12/16 02:20:46;;;;;;;;;;;;;;;4.83;53.02;97615.00;4959224;28;19925;-62
2023/12/16 02:23:14;;;;;;;;;;;;;;;4.84;52.78;97614.06;4958719;28;19933;-62
2023/12/16 02:25:42;;;;;;;;;;;;;;;4.83;52.26;97616.81;4979997;23;19930;-63
2023/12/16 02:28:08;;;;;;;;;;;;;;;4.82;53.23;97621.22;4984097;28;19965;-64
2023/12/16 02:30:33;;;;;;;;;;;;;;;4.77;53.24;97617.16;4987521;28;19960;-62
2023/12/16 02:32:58;;;;;;;;;;;;;;;4.78;53.30;97626.78;4996593;28;19980;-61
2023/12/16 02:35:23;;;;;;;;;;;;;;;4.76;53.44;97633.97;4992107;28;20117;-63
2023/12/16 02:37:49;;;;;;;;;;;;;;;4.77;53.20;97627.72;4996694;28;20059;-62
2023/12/16 02:40:14;;;;;;;;;;;;;;;4.56;52.46;97631.53;4992310;28;19926;-61
2023/12/16 02:42:39;;;;;;;;;;;;;;;4.64;50.38;97627.59;4990458;28;19975;-63
2023/12/16 02:45:05;;;;;;;;;;;;;;;4.65;52.65;97624.03;4993992;28;20005;-62
2023/12/16 02:47:30;;;;;;;;;;;;;;;4.58;53.04;97619.13;4989916;28;19932;-61
2023/12/16 02:49:55;;;;;;;;;;;;;;;4.54;52.00;97620.25;4996082;28;20044;-64
2023/12/16 02:52:20;;;;;;;;;;;;;;;4.54;51.20;97612.31;4989266;28;20175;-63
2023/12/16 02:54:46;;;;;;;;;;;;;;;4.27;50.73;97625.31;4995613;28;19925;-61
2023/12/16 02:57:11;;;;;;;;;;;;;;;4.18;50.58;97626.69;4995874;28;20409;-62
2023/12/16 02:59:36;;;;;;;;;;;;;;;4.19;53.03;97631.88;5000730;28;19994;-63
2023/12/16 03:02:02;;;;;;;;;;;;;;;4.32;54.84;97625.94;4997357;28;20008;-63
2023/12/16 03:04:27;;;;;;;;;;;;;;;4.46;52.82;97619.84;4994560;28;19975;-62
2023/12/16 03:06:52;;;;;;;;;;;;;;;4.44;53.73;97612.03;4993368;28;19955;-62
2023/12/16 03:09:17;;;;;;;;;;;;;;;4.54;52.15;97612.31;4995755;28;20082;-62
2023/12/16 03:11:43;;;;;;;;;;;;;;;4.33;50.18;97614.44;4994840;28;19925;-63
2023/12/16 03:14:08;;;;;;;;;;;;;;;4.27;50.51;97622.69;4994695;28;19924;-61
2023/12/16 03:16:33;;;;;;;;;;;;;;;4.29;50.00;97623.47;4995135;28;20123;-62
2023/12/16 03:18:59;;;;;;;;;;;;;;;4.02;49.85;97608.28;4995164;28;19925;-63
2023/12/16 03:21:24;;;;;;;;;;;;;;;3.96;50.43;97617.41;4995212;28;20314;-63
2023/12/16 03:23:49;;;;;;;;;;;;;;;3.59;51.03;97617.66;4995440;28;19925;-63
2023/12/16 03:26:14;;;;;;;;;;;;;;;3.74;52.10;97618.59;4995050;28;19929;-62
2023/12/16 03:28:40;;;;;;;;;;;;;;;3.78;52.02;97614.84;4993556;28;20084;-62
2023/12/16 03:31:05;;;;;;;;;;;;;;;3.77;51.23;97615.78;4994856;28;19932;-62
2023/12/16 03:33:30;;;;;;;;;;;;;;;3.63;52.31;97616.56;4995532;28;20549;-62
2023/12/16 03:35:56;;;;;;;;;;;;;;;3.56;54.12;97617.81;4995111;28;20036;-63
2023/12/16 03:38:21;;;;;;;;;;;;;;;3.81;51.76;97605.91;4994387;28;19940;-63
2023/12/16 03:40:46;;;;;;;;;;;;;;;3.83;51.86;97611.97;4995423;28;19922;-62
2023/12/16 03:43:11;;;;;;;;;;;;;;;3.66;50.74;97611.13;4994906;28;20017;-63
2023/12/16 03:45:37;;;;;;;;;;;;;;;3.63;51.50;97613.91;4995254;28;19964;-62
2023/12/16 03:48:02;;;;;;;;;;;;;;;3.73;50.51;97610.75;4994517;28;19948;-63
2023/12/16 03:50:27;;;;;;;;;;;;;;;3.52;51.28;97611.03;4995057;28;19925;-62
2023/12/16 03:52:52;;;;;;;;;;;;;;;3.49;51.52;97622.59;4992523;28;20409;-63
2023/12/16 03:55:18;;;;;;;;;;;;;;;3.45;51.26;97609.66;4995113;28;19926;-62
2023/12/16 03:57:43;;;;;;;;;;;;;;;3.56;51.89;97617.81;4994647;28;19944;-62
2023/12/16 04:00:09;;;;;;;;;;;;;;;3.63;51.96;97611.28;4994378;28;20067;-63
2023/12/16 04:02:34;;;;;;;;;;;;;;;3.65;50.97;97609.44;4993377;28;20275;-63
2023/12/16 04:04:59;;;;;;;;;;;;;;;3.62;51.59;97619.28;4993066;28;20035;-64
2023/12/16 04:07:24;;;;;;;;;;;;;;;3.70;50.38;97611.78;4994746;28;20051;-65
2023/12/16 04:09:50;;;;;;;;;;;;;;;3.66;51.13;97602.34;4995073;28;20276;-64
2023/12/16 04:12:15;;;;;;;;;;;;;;;3.51;50.91;97606.69;4995638;28;20016;-64
2023/12/16 04:14:40;;;;;;;;;;;;;;;3.61;50.62;97607.03;4998488;28;19929;-64
2023/12/16 04:17:06;;;;;;;;;;;;;;;3.63;51.01;97613.06;4998808;28;19936;-64
2023/12/16 04:19:31;;;;;;;;;;;;;;;3.51;51.49;97619.88;4995166;28;19925;-65
2023/12/16 04:21:56;;;;;;;;;;;;;;;3.39;51.63;97631.88;4997090;28;20258;-63
2023/12/16 04:24:21;;;;;;;;;;;;;;;3.49;53.34;97633.13;4998472;28;19937;-63
2023/12/16 04:26:47;;;;;;;;;;;;;;;3.52;54.72;97624.19;4997898;28;19955;-64
2023/12/16 04:29:12;;;;;;;;;;;;;;;3.48;56.43;97639.31;4998672;28;19921;-65
2023/12/16 04:31:38;;;;;;;;;;;;;;;3.43;54.43;97642.16;4998372;28;19940;-64
2023/12/16 04:34:04;;;;;;;;;;;;;;;3.41;52.31;97636.13;4998170;28;19984;-64
2023/12/16 04:36:29;;;;;;;;;;;;;;;3.19;52.34;97631.16;4998240;28;20424;-64
2023/12/16 04:38:55;;;;;;;;;;;;;;;3.30;52.25;97634.06;4997652;28;19921;-63
2023/12/16 04:41:20;;;;;;;;;;;;;;;3.31;52.25;97634.94;4998445;28;19925;-64
2023/12/16 04:43:45;;;;;;;;;;;;;;;3.41;51.95;97637.94;4998214;28;20221;-64
2023/12/16 04:46:10;;;;;;;;;;;;;;;3.24;52.32;97638.81;4997468;28;19925;-63
2023/12/16 04:48:36;;;;;;;;;;;;;;;3.29;51.38;97636.78;4997977;28;20004;-64
2023/12/16 04:51:07;;;;;;;;;;;;;;;3.32;51.94;97633.13;4998086;28;19937;-64
2023/12/16 04:53:32;;;;;;;;;;;;;;;3.29;51.64;97632.38;4994361;28;20178;-64
2023/12/16 04:55:58;;;;;;;;;;;;;;;3.15;51.91;97627.00;4998570;28;20382;-64
2023/12/16 04:58:23;;;;;;;;;;;;;;;3.32;51.57;97634.00;4997573;28;19960;-66
2023/12/16 05:00:48;;;;;;;;;;;;;;;3.24;51.14;97636.19;4996915;28;20226;-63
2023/12/16 05:03:13;;;;;;;;;;;;;;;3.34;51.08;97633.91;4997683;28;20720;-64
2023/12/16 05:05:39;;;;;;;;;;;;;;;2.98;51.04;97638.41;4998291;28;19925;-63
2023/12/16 05:08:04;;;;;;;;;;;;;;;2.97;51.20;97636.72;4997732;28;20477;-66
2023/12/16 05:10:29;;;;;;;;;;;;;;;2.84;51.49;97642.63;4997578;28;19925;-63
2023/12/16 05:12:55;;;;;;;;;;;;;;;3.12;50.87;97630.66;4998493;28;19976;-63
2023/12/16 05:15:20;;;;;;;;;;;;;;;3.00;50.11;97641.81;4997297;28;19929;-64
2023/12/16 05:17:45;;;;;;;;;;;;;;;2.99;50.15;97638.34;4997655;28;19932;-63
2023/12/16 05:20:11;;;;;;;;;;;;;;;2.85;50.92;97654.84;4997290;28;20456;-64
2023/12/16 05:22:36;;;;;;;;;;;;;;;2.54;51.10;97653.75;4997153;28;19960;-63
2023/12/16 05:25:02;;;;;;;;;;;;;;;2.56;51.35;97644.03;4995265;28;20124;-64
2023/12/16 05:27:28;;;;;;;;;;;;;;;2.58;51.52;97642.16;4997320;28;19921;-63
2023/12/16 05:29:53;;;;;;;;;;;;;;;2.57;50.49;97658.88;4995534;28;20054;-63
2023/12/16 05:32:19;;;;;;;;;;;;;;;2.64;50.92;97654.16;4997113;28;20016;-64
2023/12/16 05:34:44;;;;;;;;;;;;;;;2.61;51.09;97649.91;4997403;28;19961;-64
2023/12/16 05:37:09;;;;;;;;;;;;;;;2.70;50.81;97656.47;4997310;28;19925;-65
2023/12/16 05:39:34;;;;;;;;;;;;;;;2.52;50.11;97666.16;4996792;28;19932;-63
2023/12/16 05:42:00;;;;;;;;;;;;;;;2.61;49.89;97659.56;4997156;28;19939;-64
2023/12/16 05:44:25;;;;;;;;;;;;;;;2.59;50.63;97662.25;4995914;28;19925;-64
2023/12/16 05:46:51;;;;;;;;;;;;;;;2.60;50.89;97669.25;4997332;28;20548;-63
2023/12/16 05:49:16;;;;;;;;;;;;;;;2.42;50.38;97671.03;4997095;28;19925;-63
2023/12/16 05:51:42;;;;;;;;;;;;;;;2.30;50.53;97666.34;4996292;28;19960;-63
2023/12/16 05:54:10;;;;;;;;;;;;;;;1.72;50.40;97663.81;4994410;28;19929;-63
2023/12/16 05:56:35;;;;;;;;;;;;;;;1.92;50.87;97659.38;4992229;28;19969;-63
2023/12/16 05:59:00;;;;;;;;;;;;;;;2.07;50.65;97658.66;4997285;28;20505;-63
2023/12/16 06:01:26;;;;;;;;;;;;;;;2.30;50.45;97656.69;4996951;28;19922;-66
2023/12/16 06:03:51;;;;;;;;;;;;;;;2.36;50.95;97645.03;4996228;28;20414;-64
2023/12/16 06:06:16;;;;;;;;;;;;;;;2.30;50.63;97648.81;4996626;28;20283;-65
2023/12/16 06:08:42;;;;;;;;;;;;;;;1.98;50.72;97649.44;4996418;28;19922;-64
2023/12/16 06:11:13;;;;;;;;;;;;;;;2.02;51.19;97644.91;4994858;28;20271;-63
2023/12/16 06:13:39;;;;;;;;;;;;;;;2.24;50.37;97656.97;4995775;28;20349;-64
2023/12/16 06:16:05;;;;;;;;;;;;;;;2.13;50.94;97658.38;4995594;28;19961;-65
2023/12/16 06:18:30;;;;;;;;;;;;;;;2.04;50.60;97661.44;4994031;28;19947;-64
2023/12/16 06:20:55;;;;;;;;;;;;;;;2.20;51.24;97660.69;4995877;28;20412;-63
2023/12/16 06:23:21;;;;;;;;;;;;;;;2.16;50.88;97660.00;4996263;28;19976;-63
2023/12/16 06:25:46;;;;;;;;;;;;;;;1.74;51.15;97669.84;4996371;28;20486;-62
2023/12/16 06:28:11;;;;;;;;;;;;;;;1.39;51.55;97667.03;4995213;28;20121;-62
2023/12/16 06:30:38;;;;;;;;;;;;;;;1.11;52.19;97666.50;4995747;28;20202;-62
2023/12/16 06:33:03;;;;;;;;;;;;;;;0.93;53.58;97666.41;4996451;28;19921;-63
2023/12/16 06:35:28;;;;;;;;;;;;;;;0.36;54.69;97674.00;4995885;28;19932;-62
2023/12/16 06:37:54;;;;;;;;;;;;;;;0.62;54.56;97674.72;4996094;28;20055;-61
2023/12/16 06:40:19;;;;;;;;;;;;;;;0.29;54.48;97674.28;4995453;28;19979;-61
2023/12/16 06:42:44;;;;;;;;;;;;;;;0.28;55.69;97676.97;4994555;28;19925;-61
2023/12/16 06:45:10;;;;;;;;;;;;;;;0.48;55.08;97676.13;4996410;28;19939;-63
2023/12/16 06:47:37;;;;;;;;;;;;;;;0.12;56.26;97676.72;4995611;28;19955;-61
2023/12/16 06:50:02;;;;;;;;;;;;;;;0.56;54.99;97671.44;4995956;28;20437;-61
2023/12/16 06:52:28;;;;;;;;;;;;;;;0.29;54.33;97669.03;4991526;28;20191;-62
2023/12/16 06:54:53;;;;;;;;;;;;;;;0.57;53.95;97667.88;4995581;28;19956;-61
2023/12/16 06:57:18;;;;;;;;;;;;;;;0.64;54.29;97670.22;4995137;28;20010;-61
2023/12/16 06:59:43;;;;;;;;;;;;;;;0.63;54.64;97669.41;4991673;28;20407;-62
2023/12/16 07:02:08;;;;;;;;;;;;;;;0.75;54.15;97670.63;4995515;28;20039;-62
2023/12/16 07:04:34;;;;;;;;;;;;;;;1.26;52.65;97653.63;4994002;28;20330;-62
2023/12/16 07:06:59;;;;;;;;;;;;;;;1.57;52.04;97653.09;4996144;28;19962;-63
2023/12/16 07:09:25;;;;;;;;;;;;;;;1.37;52.12;97657.44;4995204;28;19980;-62
2023/12/16 07:11:50;;;;;;;;;;;;;;;1.87;51.73;97660.47;4995252;28;19926;-62
2023/12/16 07:14:15;;;;;;;;;;;;;;;2.29;50.32;97662.88;4995682;28;19922;-62
2023/12/16 07:16:41;;;;;;;;;;;;;;;2.04;50.53;97666.69;4993651;28;19937;-63
2023/12/16 07:19:06;;;;;;;;;;;;;;;1.93;51.08;97671.59;4995323;28;20469;-63
2023/12/16 07:21:31;;;;;;;;;;;;;;;2.42;49.05;97671.03;4993552;28;19928;-63
2023/12/16 07:23:56;;;;;;;;;;;;;;;2.39;49.53;97671.16;4993669;28;20118;-62
2023/12/16 07:26:22;;;;;;;;;;;;;;;2.39;50.26;97682.50;4995167;28;20045;-63
2023/12/16 07:28:47;;;;;;;;;;;;;;;2.47;49.15;97683.91;4995297;28;20501;-63
2023/12/16 07:31:12;;;;;;;;;;;;;;;2.79;48.62;97678.81;4994923;28;19925;-61
2023/12/16 07:33:38;;;;;;;;;;;;;;;2.38;50.84;97683.44;4988706;28;19921;-64
2023/12/16 07:36:03;;;;;;;;;;;;;;;2.74;57.10;97686.09;4994504;28;20003;-64
2023/12/16 07:38:29;;;;;;;;;;;;;;;3.02;55.21;97682.06;4994951;28;20512;-64
2023/12/16 07:40:54;;;;;;;;;;;;;;;3.19;55.58;97686.44;4994516;28;20342;-63
2023/12/16 07:43:20;;;;;;;;;;;;;;;3.30;52.36;97686.75;4994993;28;19972;-64
2023/12/16 07:45:45;;;;;;;;;;;;;;;3.42;52.40;97687.03;4994846;28;20135;-64
2023/12/16 07:48:10;;;;;;;;;;;;;;;3.39;50.62;97682.78;4995545;28;19991;-64
2023/12/16 07:50:35;;;;;;;;;;;;;;;3.50;49.99;97690.13;4994066;28;19968;-64
2023/12/16 07:53:02;;;;;;;;;;;;;;;3.55;51.60;97692.53;4993032;28;19925;-64
2023/12/16 07:55:28;;;;;;;;;;;;;;;3.49;49.55;97695.47;4996801;28;19972;-63
2023/12/16 07:57:53;;;;;;;;;;;;;;;3.68;53.24;97703.25;4994718;28;19964;-63
2023/12/16 08:00:19;;;;;;;;;;;;;;;3.89;56.22;97706.50;4995285;28;19933;-64
2023/12/16 08:02:44;;;;;;;;;;;;;;;4.01;56.20;97710.22;4993296;28;19925;-65
2023/12/16 08:05:10;;;;;;;;;;;;;;;4.12;54.96;97717.53;4987814;28;20361;-63
2023/12/16 08:07:35;;;;;;;;;;;;;;;4.17;54.60;97715.50;4992685;28;20046;-64
2023/12/16 08:10:00;;;;;;;;;;;;;;;4.26;54.13;97716.78;4994815;28;19928;-63
2023/12/16 08:12:25;;;;;;;;;;;;;;;4.30;55.33;97718.31;4994112;28;20199;-64
2023/12/16 08:14:51;;;;;;;;;;;;;;;4.41;54.64;97717.69;4994597;28;20039;-63
2023/12/16 08:17:16;;;;;;;;;;;;;;;4.18;47.36;97717.22;4998272;28;20389;-64
2023/12/16 08:19:42;;;;;;;;;;;;;;;4.39;54.46;97711.66;4993753;28;19975;-64
2023/12/16 08:22:08;;;;;;;;;;;;;;;4.51;53.56;97725.06;4995028;28;19976;-64
2023/12/16 08:24:33;;;;;;;;;;;;;;;4.70;53.55;97719.63;4994075;28;19960;-64
2023/12/16 08:26:58;;;;;;;;;;;;;;;4.86;53.19;97716.91;4993312;28;20311;-65
2023/12/16 08:29:24;;;;;;;;;;;;;;;4.90;48.94;97715.78;4994122;28;19947;-64
2023/12/16 08:31:49;;;;;;;;;;;;;;;5.15;47.79;97714.38;4993954;28;19925;-63
2023/12/16 08:34:14;;;;;;;;;;;;;;;5.13;48.70;97716.25;4993777;28;20005;-64
2023/12/16 08:36:40;;;;;;;;;;;;;;;5.18;46.63;97722.13;4994555;28;19918;-64
2023/12/16 08:39:06;;;;;;;;;;;;;;;5.11;44.65;97715.50;4994778;28;20016;-64
2023/12/16 08:41:31;;;;;;;;;;;;;;;4.96;44.60;97720.72;4991768;28;20208;-65
2023/12/16 08:43:56;;;;;;;;;;;;;;;5.08;44.02;97723.59;4993176;28;20401;-62
2023/12/16 08:46:23;;;;;;;;;;;;;;;4.42;45.92;97729.13;4994159;28;19940;-63
2023/12/16 08:48:49;;;;;;;;;;;;;;;4.73;44.99;97724.69;4989318;28;20110;-62
2023/12/16 08:51:21;;;;;;;;;;;;;;;4.83;44.80;97722.41;4991890;28;20016;-61
2023/12/16 08:53:46;;;;;;;;;;;;;;;4.69;44.25;97734.59;4993394;28;20180;-61
2023/12/16 08:56:11;;;;;;;;;;;;;;;4.41;46.10;97733.53;4992860;28;19956;-62
2023/12/16 08:58:37;;;;;;;;;;;;;;;4.02;47.99;97740.09;4993814;28;20184;-63
2023/12/16 09:01:03;;;;;;;;;;;;;;;4.41;45.99;97727.38;4995536;28;20116;-63
2023/12/16 09:03:28;;;;;;;;;;;;;;;4.47;45.91;97740.25;4993955;28;19925;-63
2023/12/16 09:05:53;;;;;;;;;;;;;;;4.81;44.90;97740.09;4998624;28;19926;-62
2023/12/16 09:08:19;;;;;;;;;;;;;;;3.89;46.67;97738.13;4999187;28;20397;-62
2023/12/16 09:10:44;;;;;;;;;;;;;;;4.25;46.32;97736.16;4998685;28;19951;-62
2023/12/16 09:13:09;;;;;;;;;;;;;;;4.22;48.39;97738.13;4998435;28;20401;-61
2023/12/16 09:15:35;;;;;;;;;;;;;;;4.00;47.91;97740.16;4997177;28;20020;-62
2023/12/16 09:18:01;;;;;;;;;;;;;;;4.13;47.45;97756.16;4999493;28;20314;-63
2023/12/16 09:20:26;;;;;;;;;;;;;;;4.30;46.32;97751.75;4996234;28;20457;-62
2023/12/16 09:22:51;;;;;;;;;;;;;;;4.11;46.28;97760.66;4997039;28;19925;-61
2023/12/16 09:25:16;;;;;;;;;;;;;;;4.21;46.43;97757.53;4997851;28;20778;-62
2023/12/16 09:27:43;;;;;;;;;;;;;;;3.82;47.64;97757.84;4997367;28;19932;-62
2023/12/16 09:30:09;;;;;;;;;;;;;;;3.99;48.25;97759.56;4998769;28;19959;-63
2023/12/16 09:32:34;;;;;;;;;;;;;;;3.97;47.34;97752.66;4997953;28;19929;-62
2023/12/16 09:34:59;;;;;;;;;;;;;;;3.34;48.75;97766.44;4999148;28;20016;-62
2023/12/16 09:37:25;;;;;;;;;;;;;;;3.71;48.16;97768.09;4997773;28;19929;-62
2023/12/16 09:39:50;;;;;;;;;;;;;;;3.25;48.35;97773.03;4998969;28;19933;-62
2023/12/16 09:42:15;;;;;;;;;;;;;;;3.71;49.95;97771.56;4996804;28;20453;-62
2023/12/16 09:44:40;;;;;;;;;;;;;;;4.13;50.06;97774.63;4997395;28;19967;-62
2023/12/16 09:47:08;;;;;;;;;;;;;;;4.11;48.24;97770.38;4998124;28;20137;-62
2023/12/16 09:49:34;;;;;;;;;;;;;;;4.17;48.75;97768.25;4998130;28;20545;-62
2023/12/16 09:52:00;;;;;;;;;;;;;;;4.10;46.52;97755.47;4995462;28;20410;-62
2023/12/16 09:54:25;;;;;;;;;;;;;;;4.21;47.09;97762.81;4998761;28;19917;-62
2023/12/16 09:56:50;;;;;;;;;;;;;;;4.39;47.55;97761.75;4997541;28;20308;-61
2023/12/16 09:59:16;;;;;;;;;;;;;;;4.32;47.22;97763.91;4995402;28;19929;-63
2023/12/16 10:01:46;;;;;;;;;;;;;;;4.93;47.33;97760.50;4999331;28;19937;-63
2023/12/16 10:04:11;;;;;;;;;;;;;;;5.10;46.38;97753.38;4972188;28;19936;-63
2023/12/16 10:06:36;;;;;;;;;;;;;;;5.20;45.17;97751.06;4992429;28;19925;-63
2023/12/16 10:09:02;;;;;;;;;;;;;;;4.79;46.46;97758.66;4997179;28;20318;-62
2023/12/16 10:11:28;;;;;;;;;;;;;;;4.75;46.61;97758.91;4992963;28;20000;-62
2023/12/16 10:13:54;;;;;;;;;;;;;;;4.85;46.29;97757.44;4989249;28;19928;-63
2023/12/16 10:16:22;;;;;;;;;;;;;;;4.27;46.98;97767.72;4996663;28;19925;-63
2023/12/16 10:18:54;;;;;;;;;;;;;;;3.59;48.73;97766.94;4995815;28;19932;-63
2023/12/16 10:21:29;;;;;;;;;;;;;;;3.80;48.59;97757.06;4995237;28;19980;-62
2023/12/16 10:24:01;;;;;;;;;;;;;;;4.12;48.85;97770.25;4991366;28;20009;-63
2023/12/16 10:26:30;;;;;;;;;;;;;;;3.43;48.81;97762.44;4995773;28;20028;-62
2023/12/16 10:28:55;;;;;;;;;;;;;;;3.93;48.80;97763.38;4996648;28;19922;-62
2023/12/16 10:31:21;;;;;;;;;;;;;;;4.48;47.10;97755.13;4996157;28;20012;-63
2023/12/16 10:33:47;;;;;;;;;;;;;;;4.89;46.57;97758.97;4996976;28;19925;-64
2023/12/16 10:36:12;;;;;;;;;;;;;;;4.77;46.98;97759.69;4994172;28;19932;-62
2023/12/16 10:38:37;;;;;;;;;;;;;;;4.86;46.63;97764.41;4995864;28;19930;-63
2023/12/16 10:41:03;;;;;;;;;;;;;;;5.12;46.42;97767.38;4996635;28;19928;-63
2023/12/16 10:43:28;;;;;;;;;;;;;;;5.05;46.50;97766.00;4995415;28;19997;-61
2023/12/16 10:45:54;;;;;;;;;;;;;;;5.36;46.32;97766.84;4996420;28;19917;-63
2023/12/16 10:48:20;;;;;;;;;;;;;;;5.55;45.34;97771.03;4994539;28;19968;-63
2023/12/16 10:50:46;;;;;;;;;;;;;;;5.61;45.34;97778.56;4996247;28;20388;-63
2023/12/16 10:53:14;;;;;;;;;;;;;;;5.68;45.09;97766.69;4995021;28;19918;-63
2023/12/16 10:55:42;;;;;;;;;;;;;;;5.69;45.46;97776.34;4994395;28;19971;-63
2023/12/16 10:58:14;;;;;;;;;;;;;;;5.90;45.40;97770.66;4995832;28;19925;-63
2023/12/16 11:00:40;;;;;;;;;;;;;;;5.98;45.43;97763.09;4996247;28;20696;-63
2023/12/16 11:03:07;;;;;;;;;;;;;;;6.10;44.61;97765.91;4995587;28;20081;-63
2023/12/16 11:05:34;;;;;;;;;;;;;;;5.95;44.56;97754.50;4990191;28;19980;-63
2023/12/16 11:08:02;;;;;;;;;;;;;;;6.17;44.31;97761.09;4990121;28;19926;-63
2023/12/16 11:10:31;;;;;;;;;;;;;;;6.11;44.06;97757.03;4995628;28;20429;-63
2023/12/16 11:12:56;;;;;;;;;;;;;;;5.92;45.39;97757.34;4993834;28;20365;-62
2023/12/16 11:15:22;;;;;;;;;;;;;;;6.01;44.58;97753.28;4994033;28;20032;-62
2023/12/16 11:17:50;;;;;;;;;;;;;;;5.99;46.98;97748.91;4994107;28;19970;-62
2023/12/16 11:20:20;;;;;;;;;;;;;;;6.21;44.36;97750.22;4995856;28;19921;-63
2023/12/16 11:22:48;;;;;;;;;;;;;;;6.18;45.05;97753.06;4994127;28;20636;-62
2023/12/16 11:25:17;;;;;;;;;;;;;;;6.66;43.76;97743.03;4995671;28;19917;-63
2023/12/16 11:27:43;;;;;;;;;;;;;;;6.65;44.43;97736.88;4996142;28;19933;-63
2023/12/16 11:30:12;;;;;;;;;;;;;;;5.32;46.32;97726.56;4996496;28;19952;-63
2023/12/16 11:32:37;;;;;;;;;;;;;;;6.21;44.85;97720.25;4995484;28;20385;-62
2023/12/16 11:35:03;;;;;;;;;;;;;;;6.30;45.21;97718.81;4996064;28;20047;-63
2023/12/16 11:37:34;;;;;;;;;;;;;;;6.45;44.06;97715.19;4994568;28;19984;-63
2023/12/16 11:40:00;;;;;;;;;;;;;;;5.00;48.05;97718.72;4997372;28;19921;-63
2023/12/16 11:42:44;;;;;;;;;;;;;;;6.52;44.35;97702.44;4995794;28;20269;-63
2023/12/16 11:45:10;;;;;;;;;;;;;;;9.24;40.87;97676.28;4995367;28;19917;-63
2023/12/16 11:47:35;;;;;;;;;;;;;;;10.62;38.30;97682.28;4995068;28;19925;-63
2023/12/16 11:50:00;;;;;;;;;;;;;;;11.41;34.33;97672.16;4995444;28;20366;-64
2023/12/16 11:52:27;;;;;;;;;;;;;;;11.07;34.13;97683.88;4995421;28;19969;-77
2023/12/16 11:54:52;;;;;;;;;;;;;;;11.41;33.08;97685.50;4994409;28;19932;-77
2023/12/16 11:57:27;;;;;;;;;;;;;;;12.73;31.35;97678.38;4994858;28;19925;-78
2023/12/16 11:59:52;;;;;;;;;;;;;;;12.47;32.32;97683.44;4992400;28;20411;-63
2023/12/16 12:02:18;;;;;;;;;;;;;;;12.68;31.55;97677.94;4992311;28;20024;-63
2023/12/16 12:04:43;;;;;;;;;;;;;;;12.12;32.73;97673.16;4995593;28;19933;-62
2023/12/16 12:07:09;;;;;;;;;;;;;;;14.07;29.45;97659.69;4991876;28;19925;-63
2023/12/16 12:09:34;;;;;;;;;;;;;;;13.83;29.87;97655.72;4994898;28;19924;-63
2023/12/16 12:12:03;;;;;;;;;;;;;;;13.79;29.74;97652.50;4994530;28;19925;-63
2023/12/16 12:14:28;;;;;;;;;;;;;;;12.36;31.70;97658.56;4993320;28;19925;-63
2023/12/16 12:16:53;;;;;;;;;;;;;;;12.69;31.34;97657.44;4996553;28;20080;-63
2023/12/16 12:19:19;;;;;;;;;;;;;;;13.04;31.05;97639.97;4995008;28;19921;-63
2023/12/16 12:21:44;;;;;;;;;;;;;;;10.83;34.15;97653.00;4992361;28;20455;-63
2023/12/16 12:24:09;;;;;;;;;;;;;;;9.24;37.26;97660.31;4994654;28;19975;-62
2023/12/16 12:26:34;;;;;;;;;;;;;;;7.75;39.78;97653.53;4993412;28;19978;-63
2023/12/16 12:29:01;;;;;;;;;;;;;;;7.64;40.59;97664.88;4994590;28;20091;-63
2023/12/16 12:31:26;;;;;;;;;;;;;;;7.00;43.09;97661.31;4994239;28;19964;-63
2023/12/16 12:33:52;;;;;;;;;;;;;;;5.47;45.95;97658.72;4996637;28;19921;-63
2023/12/16 12:36:17;;;;;;;;;;;;;;;6.18;44.57;97656.97;4998847;28;19931;-62
2023/12/16 12:38:45;;;;;;;;;;;;;;;6.01;44.25;97655.44;4997872;28;20254;-63
2023/12/16 12:41:13;;;;;;;;;;;;;;;5.07;46.47;97653.25;4990721;28;19921;-63
2023/12/16 12:43:39;;;;;;;;;;;;;;;5.31;45.98;97647.41;4996013;28;20068;-64
2023/12/16 12:46:07;;;;;;;;;;;;;;;5.07;46.82;97645.34;4996678;28;20015;-63
2023/12/16 12:48:33;;;;;;;;;;;;;;;5.30;46.71;97636.00;4998268;28;19925;-64